Airfield :
LOGIN :

Register | Disclaimer

   EN    FR    IT 

 










Legend :    VFR   Marginal VFR   IFR   Intensive IFR   Very Intensive IFR
Visi :
Ceiling :
>= 8 km
>= 3000ft
5 to 8 km
1000 to 3000 ft
1500m to 5 km
500 to 1000 ft
800 to 1500m
200 to 500 ft
< 800m
< 200 ft
Symbols :   Thunderstorms  Fog  Heavy snow  Heavy precipitations  Wind > 20 kt
SIGMETs :     Misc.  Thunderstorms  Icing  Turbulence  Mountain Waves  Volcanic Ashes







- Airport Elevation : 233 ft
- IATA code : REU


LERS - Reus Tarragona

CURRENT METAR :
  • 231800Z 28001KT 7000 FEW015 13/13 Q1018

EXPIRED METARs :
  • 231730Z 22003KT 8000 FEW015 13/13 Q1018
  • 231700Z 24004KT 8000 FEW015 13/12 Q1018
  • 231630Z 21003KT 190V250 9999 FEW015 16/14 Q1018
  • 231600Z 21004KT 180V240 CAVOK 17/14 Q1017
  • 231530Z 19003KT 150V230 CAVOK 18/14 Q1017

TAF TAF LERS
Valid from the 23 at 15:00 until the 24 at 15:00 UTC


231400Z 2315/2415 21006KT 9999 FEW020 TX22/2413Z TN06/2406Z
BECMG 2318/2320 VRB04KT
PROB40
TEMPO 2316/2402 1000 BCFG BKN005
No reported NOTAMs for that airfield.



MET'MAP, your aeronautical weather chart ! - Copyright ORBIFLY December 2007 - Disclaimer

ORBIFLY MET'MAP TEAM :

Programming & Development : Alexandra Zaïnal
Concept & Development : Baudouin d'Aumeries
Co-Development & Prog : Marc-Olivier Méhu
Technical & hardware support : Manuel Goepfert

Contact : metmap@orbifly.com




SOURCES & CREDITS :

   NOAA